Time;durP1;ratioP1;P1;durP2;ratioP2;P2;SDS_P1;SDS_P2;PMS_P1;PMS_P2;Temp;Humidity;BMP_temperature;BMP_pressure;BME280_temperature;BME280_humidity;BME280_pressure;Samples;Min_cycle;Max_cycle;Signal;HPM_P1;HPM_P2
2023/07/21 00:01:06;;;;;;;4.68;2.78;;;13.30;99.90;;;;;;5035257;28;20045;-76
2023/07/21 00:03:33;;;;;;;3.58;2.90;;;13.20;99.90;;;;;;5074110;28;20326;-76
2023/07/21 00:06:06;;;;;;;4.35;2.90;;;13.10;99.90;;;;;;5027691;28;20033;-77
2023/07/21 00:08:36;;;;;;;7.00;3.80;;;13.10;99.90;;;;;;5040016;28;20478;-76
2023/07/21 00:11:02;;;;;;;5.88;3.33;;;13.00;99.90;;;;;;5036496;28;20044;-77
2023/07/21 00:13:29;;;;;;;5.03;3.50;;;13.00;99.90;;;;;;5035858;28;20036;-77
2023/07/21 00:15:56;;;;;;;4.75;3.30;;;13.00;99.90;;;;;;5011757;28;20425;-77
2023/07/21 00:18:23;;;;;;;4.70;3.53;;;13.00;99.90;;;;;;5017344;28;20103;-77
2023/07/21 00:20:50;;;;;;;5.13;3.55;;;13.00;99.90;;;;;;5037523;28;20037;-77
2023/07/21 00:23:17;;;;;;;5.90;3.60;;;13.00;99.90;;;;;;5015643;28;20037;-77
2023/07/21 00:25:46;;;;;;;5.72;3.58;;;12.90;99.90;;;;;;5041141;28;20033;-76
2023/07/21 00:28:12;;;;;;;4.82;4.00;;;12.90;99.90;;;;;;5074174;28;20069;-77
2023/07/21 00:30:38;;;;;;;5.85;3.40;;;12.80;99.90;;;;;;5025309;28;20087;-77
2023/07/21 00:33:04;;;;;;;4.78;3.67;;;12.90;99.90;;;;;;5044821;28;20528;-77
2023/07/21 00:35:31;;;;;;;8.25;3.67;;;12.90;99.90;;;;;;5019912;28;20644;-77
2023/07/21 00:38:01;;;;;;;7.20;4.43;;;12.90;99.90;;;;;;5025987;28;20037;-77
2023/07/21 00:40:27;;;;;;;7.93;4.32;;;13.00;99.90;;;;;;5010983;28;20041;-77
2023/07/21 00:42:54;;;;;;;5.72;4.18;;;12.90;99.90;;;;;;5019295;28;20041;-77
2023/07/21 00:45:20;;;;;;;6.53;3.78;;;12.90;99.90;;;;;;5028685;28;20037;-76
2023/07/21 00:47:47;;;;;;;5.18;3.92;;;12.90;99.90;;;;;;5007856;28;20380;-77
2023/07/21 00:50:14;;;;;;;5.32;3.63;;;12.90;99.90;;;;;;5030831;28;20052;-77
2023/07/21 00:52:40;;;;;;;6.20;4.25;;;12.90;99.90;;;;;;5031344;28;20091;-77
2023/07/21 00:55:07;;;;;;;5.18;3.67;;;12.90;99.90;;;;;;5053095;28;20045;-76
2023/07/21 00:57:34;;;;;;;6.50;4.13;;;13.00;99.90;;;;;;5025164;28;20503;-77
2023/07/21 01:00:01;;;;;;;5.78;4.05;;;12.90;99.90;;;;;;5026461;28;20088;-77
2023/07/21 01:02:27;;;;;;;6.45;3.97;;;12.90;99.90;;;;;;5027079;28;20094;-76
2023/07/21 01:04:54;;;;;;;6.28;4.25;;;13.00;99.90;;;;;;5005164;28;20045;-77
2023/07/21 01:07:20;;;;;;;5.88;4.38;;;13.00;99.90;;;;;;5027425;28;20032;-76
2023/07/21 01:09:47;;;;;;;6.28;4.15;;;13.00;99.90;;;;;;5012652;28;20033;-76
2023/07/21 01:12:13;;;;;;;5.38;4.10;;;13.00;99.90;;;;;;5029352;28;20056;-77
2023/07/21 01:14:39;;;;;;;5.15;4.30;;;13.00;99.90;;;;;;5025914;28;20526;-77
2023/07/21 01:17:07;;;;;;;8.88;4.70;;;12.90;99.90;;;;;;5054768;28;20076;-77
2023/07/21 01:19:36;;;;;;;8.65;4.40;;;13.00;99.90;;;;;;5062646;28;20069;-76
2023/07/21 01:22:24;;;;;;;10.05;4.75;;;13.00;99.90;;;;;;5044932;28;20041;-77
2023/07/21 01:24:49;;;;;;;6.85;4.55;;;12.90;99.90;;;;;;5028900;28;20033;-77
2023/07/21 01:27:22;;;;;;;7.30;5.10;;;12.90;99.90;;;;;;5040498;28;20056;-77
2023/07/21 01:29:48;;;;;;;;;;;12.90;99.90;;;;;;5043286;28;20053;-77
2023/07/21 01:32:18;;;;;;;7.10;4.97;;;12.90;99.90;;;;;;5043107;28;19916;-77
2023/07/21 01:34:44;;;;;;;7.30;4.97;;;12.90;99.90;;;;;;5076338;28;20033;-77
2023/07/21 01:37:11;;;;;;;7.65;4.80;;;12.90;99.90;;;;;;5047210;28;20032;-76
2023/07/21 01:39:38;;;;;;;7.55;4.80;;;12.90;99.90;;;;;;5040042;28;20064;-77
2023/07/21 01:42:05;;;;;;;10.40;4.80;;;12.90;99.90;;;;;;5039838;28;20087;-76
2023/07/21 01:44:31;;;;;;;6.45;4.78;;;12.90;99.90;;;;;;5064034;28;20502;-77
2023/07/21 01:46:57;;;;;;;11.73;5.57;;;12.80;99.90;;;;;;5015551;28;20535;-76
2023/07/21 01:49:23;;;;;;;5.55;4.50;;;12.80;99.90;;;;;;5014925;28;20037;-77
2023/07/21 01:51:52;;;;;;;7.88;4.50;;;12.80;99.90;;;;;;5029359;28;20493;-77
2023/07/21 01:54:30;;;;;;;5.15;4.47;;;12.80;99.90;;;;;;5026908;28;20115;-77
2023/07/21 01:57:03;;;;;;;8.35;5.07;;;12.80;99.90;;;;;;5033085;28;20449;-76
2023/07/21 01:59:29;;;;;;;8.68;4.97;;;12.80;99.90;;;;;;5025050;28;20095;-77
2023/07/21 02:01:56;;;;;;;6.90;4.70;;;12.80;99.90;;;;;;5012045;28;20087;-77
2023/07/21 02:04:22;;;;;;;8.15;5.20;;;12.80;99.90;;;;;;5025979;28;20053;-77
2023/07/21 02:06:49;;;;;;;7.00;4.57;;;12.80;99.90;;;;;;5015965;28;20563;-76
2023/07/21 02:09:15;;;;;;;9.63;5.07;;;12.80;99.90;;;;;;5036872;28;20486;-77
2023/07/21 02:11:43;;;;;;;11.50;5.35;;;12.80;99.90;;;;;;5034842;28;20509;-76
2023/07/21 02:14:09;;;;;;;7.40;4.85;;;12.90;99.90;;;;;;5038190;28;20045;-77
2023/07/21 02:16:37;;;;;;;6.72;4.55;;;12.90;99.90;;;;;;5044934;28;20568;-76
2023/07/21 02:19:05;;;;;;;10.75;3.95;;;12.90;99.90;;;;;;5075391;28;20049;-77
2023/07/21 02:21:31;;;;;;;8.57;4.30;;;12.90;99.90;;;;;;5029241;28;20415;-77
2023/07/21 02:23:57;;;;;;;6.70;4.10;;;12.90;99.90;;;;;;5028434;28;20036;-77
2023/07/21 02:26:22;;;;;;;9.00;4.63;;;12.80;99.90;;;;;;5018326;28;20041;-77
2023/07/21 02:28:48;;;;;;;5.07;4.22;;;12.80;99.90;;;;;;5014395;28;20053;-77
2023/07/21 02:31:14;;;;;;;5.47;4.25;;;12.70;99.90;;;;;;5052700;28;20542;-77
2023/07/21 02:33:39;;;;;;;7.10;4.90;;;12.80;99.90;;;;;;5039589;28;20514;-76
2023/07/21 02:36:05;;;;;;;7.75;4.85;;;12.80;99.90;;;;;;5029775;28;20037;-76
2023/07/21 02:38:31;;;;;;;7.78;4.90;;;12.80;99.90;;;;;;5018505;28;20044;-77
2023/07/21 02:41:03;;;;;;;7.78;4.70;;;12.70;99.90;;;;;;5028225;28;20474;-77
2023/07/21 02:43:29;;;;;;;7.93;4.43;;;12.70;99.90;;;;;;5026670;28;20124;-77
2023/07/21 02:45:55;;;;;;;5.03;3.90;;;12.70;99.90;;;;;;5053081;28;20056;-77
2023/07/21 02:48:21;;;;;;;9.75;4.63;;;12.70;99.90;;;;;;5041768;28;20475;-77
2023/07/21 02:50:51;;;;;;;6.70;4.80;;;12.70;99.90;;;;;;5030691;28;20604;-77
2023/07/21 02:53:19;;;;;;;7.20;5.00;;;12.70;99.90;;;;;;5058998;28;20034;-76
2023/07/21 02:55:45;;;;;;;9.23;5.15;;;12.60;99.90;;;;;;5027628;28;20049;-77
2023/07/21 02:58:13;;;;;;;7.00;4.63;;;12.60;99.90;;;;;;5038800;28;20037;-77
2023/07/21 03:00:40;;;;;;;7.82;5.60;;;12.60;99.90;;;;;;5031128;28;20041;-77
2023/07/21 03:03:08;;;;;;;6.28;4.68;;;12.60;99.90;;;;;;5004805;28;20044;-77
2023/07/21 03:05:34;;;;;;;7.40;5.03;;;12.50;99.90;;;;;;5040686;28;20114;-76
2023/07/21 03:08:00;;;;;;;10.70;5.47;;;12.50;99.90;;;;;;5026287;28;20056;-77
2023/07/21 03:10:26;;;;;;;11.68;4.88;;;12.50;99.90;;;;;;5017552;28;20638;-77
2023/07/21 03:12:52;;;;;;;7.53;4.88;;;12.50;99.90;;;;;;5019014;28;20505;-77
2023/07/21 03:15:17;;;;;;;7.70;5.10;;;12.50;99.90;;;;;;5008894;28;20045;-76
2023/07/21 03:17:43;;;;;;;7.30;4.68;;;12.50;99.90;;;;;;5052056;28;20041;-77
2023/07/21 03:20:13;;;;;;;9.07;5.18;;;12.50;99.90;;;;;;5027563;28;20037;-77
2023/07/21 03:22:42;;;;;;;6.10;4.45;;;12.50;99.90;;;;;;5029514;28;20033;-76
2023/07/21 03:25:09;;;;;;;6.05;5.35;;;12.50;99.90;;;;;;5070337;28;20049;-76
2023/07/21 03:27:35;;;;;;;7.30;5.00;;;12.50;99.90;;;;;;5034390;28;20048;-76
2023/07/21 03:30:04;;;;;;;7.32;5.18;;;12.50;99.90;;;;;;5043390;28;20049;-77
2023/07/21 03:32:30;;;;;;;6.82;4.80;;;12.50;99.90;;;;;;5013326;28;20041;-76
2023/07/21 03:34:56;;;;;;;8.40;5.38;;;12.40;99.90;;;;;;5034990;28;20041;-76
2023/07/21 03:37:25;;;;;;;7.88;5.60;;;12.40;99.90;;;;;;5003643;28;20045;-77
2023/07/21 03:39:52;;;;;;;7.78;5.32;;;12.30;99.90;;;;;;5027731;28;20040;-77
2023/07/21 03:42:18;;;;;;;5.57;4.60;;;12.40;99.90;;;;;;5043243;28;20098;-78
2023/07/21 03:44:51;;;;;;;7.90;5.03;;;12.40;99.90;;;;;;5040877;28;20064;-78
2023/07/21 03:47:17;;;;;;;6.82;5.22;;;12.40;99.90;;;;;;5062398;28;20398;-78
2023/07/21 03:49:46;;;;;;;6.45;4.78;;;12.40;99.90;;;;;;5052210;28;20040;-78
2023/07/21 03:52:13;;;;;;;7.30;4.80;;;12.40;99.90;;;;;;5045433;28;20040;-78
2023/07/21 03:54:40;;;;;;;8.07;4.97;;;12.40;99.90;;;;;;5025092;28;20114;-78
2023/07/21 03:57:06;;;;;;;8.88;5.30;;;12.40;99.90;;;;;;5023533;28;20038;-78
2023/07/21 03:59:32;;;;;;;7.40;4.78;;;12.40;99.90;;;;;;5076927;28;20090;-78
2023/07/21 04:01:58;;;;;;;9.85;5.00;;;12.40;99.90;;;;;;5039157;28;20718;-77
2023/07/21 04:04:24;;;;;;;6.60;4.60;;;12.40;99.90;;;;;;5034899;28;20045;-77
2023/07/21 04:06:49;;;;;;;8.00;5.18;;;12.40;99.90;;;;;;5048076;28;20041;-77
2023/07/21 04:09:15;;;;;;;7.60;4.90;;;12.30;99.90;;;;;;5021180;28;20395;-76
2023/07/21 04:11:42;;;;;;;7.65;4.90;;;12.30;99.90;;;;;;5002671;28;20175;-77
2023/07/21 04:14:07;;;;;;;7.50;5.30;;;12.30;99.90;;;;;;5042020;28;20048;-77
2023/07/21 04:16:34;;;;;;;7.45;5.35;;;12.40;99.90;;;;;;5044142;28;20041;-77
2023/07/21 04:19:00;;;;;;;6.80;4.72;;;12.40;99.90;;;;;;4998861;28;20033;-77
2023/07/21 04:21:25;;;;;;;7.70;4.95;;;12.40;99.90;;;;;;5049503;28;20041;-77
2023/07/21 04:23:51;;;;;;;6.25;4.65;;;12.40;99.90;;;;;;5044245;28;20040;-77
2023/07/21 04:26:17;;;;;;;11.27;5.20;;;12.10;99.90;;;;;;5074688;28;20029;-77
2023/07/21 04:28:44;;;;;;;5.18;3.85;;;12.40;99.90;;;;;;5033090;28;20060;-76
2023/07/21 04:31:10;;;;;;;5.63;4.30;;;12.40;99.90;;;;;;5008002;28;20048;-78
2023/07/21 04:33:36;;;;;;;10.15;5.00;;;12.40;99.90;;;;;;5018589;28;20033;-78
2023/07/21 04:36:02;;;;;;;12.02;5.32;;;12.40;99.90;;;;;;5068680;28;20053;-78
2023/07/21 04:38:28;;;;;;;7.93;5.28;;;12.50;99.90;;;;;;5021158;28;20041;-78
2023/07/21 04:40:54;;;;;;;8.55;4.90;;;12.50;99.90;;;;;;5033388;28;20049;-78
2023/07/21 04:43:21;;;;;;;9.73;5.53;;;12.60;99.90;;;;;;5007303;28;20040;-78
2023/07/21 04:45:47;;;;;;;10.82;6.13;;;12.60;99.90;;;;;;5077469;28;20695;-78
2023/07/21 04:48:12;;;;;;;11.63;5.15;;;12.60;99.90;;;;;;5038196;28;20099;-77
2023/07/21 04:50:42;;;;;;;7.80;5.53;;;12.70;99.90;;;;;;5028586;28;20474;-78
2023/07/21 04:53:11;;;;;;;8.32;5.15;;;12.60;99.90;;;;;;5022568;28;20029;-77
2023/07/21 04:55:38;;;;;;;6.78;4.75;;;12.60;99.90;;;;;;5057396;28;20055;-78
2023/07/21 04:58:08;;;;;;;6.38;4.40;;;12.70;99.90;;;;;;5073727;28;20044;-78
2023/07/21 05:00:34;;;;;;;11.90;4.57;;;12.60;99.90;;;;;;5076140;28;20561;-78
2023/07/21 05:03:00;;;;;;;5.53;4.75;;;12.70;99.90;;;;;;5004727;28;20120;-77
2023/07/21 05:05:27;;;;;;;7.57;5.00;;;12.70;99.90;;;;;;5025593;28;20124;-78
2023/07/21 05:07:56;;;;;;;5.50;4.10;;;12.70;99.90;;;;;;5053772;28;20037;-78
2023/07/21 05:10:21;;;;;;;6.25;4.97;;;12.70;99.90;;;;;;5056480;28;20045;-78
2023/07/21 05:12:47;;;;;;;7.63;3.97;;;12.70;99.90;;;;;;5026139;28;20569;-78
2023/07/21 05:15:13;;;;;;;8.55;5.05;;;12.80;99.90;;;;;;5060829;28;20102;-77
2023/07/21 05:17:40;;;;;;;8.25;5.20;;;12.80;99.90;;;;;;5011179;28;20650;-77
2023/07/21 05:20:07;;;;;;;7.68;5.03;;;12.90;99.90;;;;;;5011282;28;20491;-77
2023/07/21 05:22:33;;;;;;;8.95;4.30;;;12.90;99.90;;;;;;5045003;28;20049;-77
2023/07/21 05:24:59;;;;;;;8.52;4.60;;;13.00;99.90;;;;;;5048440;28;20124;-77
2023/07/21 05:27:25;;;;;;;5.55;4.13;;;13.00;99.90;;;;;;5044245;28;20493;-77
2023/07/21 05:29:51;;;;;;;6.82;4.25;;;13.10;99.90;;;;;;5061508;28;20057;-77
2023/07/21 05:32:16;;;;;;;5.28;3.30;;;13.20;99.90;;;;;;5081392;28;20041;-77
2023/07/21 05:34:42;;;;;;;5.07;4.10;;;13.20;99.90;;;;;;5047486;28;20051;-78
2023/07/21 05:37:12;;;;;;;10.18;5.55;;;13.20;99.90;;;;;;5050624;28;20076;-78
2023/07/21 05:39:39;;;;;;;6.53;4.07;;;13.30;99.90;;;;;;5025532;28;20044;-78
2023/07/21 05:42:05;;;;;;;8.98;4.47;;;13.40;99.90;;;;;;5011731;28;20095;-78
2023/07/21 05:44:33;;;;;;;5.10;3.97;;;13.40;99.90;;;;;;5025700;28;20107;-77
2023/07/21 05:47:02;;;;;;;4.38;3.70;;;13.50;99.90;;;;;;5031589;28;20045;-78
2023/07/21 05:49:28;;;;;;;6.78;4.80;;;13.60;99.90;;;;;;5029293;28;21033;-78
2023/07/21 05:51:54;;;;;;;7.10;4.57;;;13.60;99.90;;;;;;5042008;28;20030;-78
2023/07/21 05:54:19;;;;;;;7.35;4.07;;;13.70;99.90;;;;;;5000167;28;20037;-78
2023/07/21 05:56:45;;;;;;;6.60;3.90;;;13.80;99.90;;;;;;5033569;28;20033;-78
2023/07/21 05:59:11;;;;;;;4.40;3.70;;;13.90;99.90;;;;;;5035333;28;20049;-78
2023/07/21 06:01:37;;;;;;;5.68;3.33;;;13.90;99.90;;;;;;5033397;28;20119;-78
2023/07/21 06:04:05;;;;;;;3.70;2.97;;;14.00;99.90;;;;;;5084333;28;20040;-78
2023/07/21 06:06:31;;;;;;;6.15;2.92;;;14.10;99.90;;;;;;5072820;28;20041;-78
2023/07/21 06:08:57;;;;;;;4.53;2.55;;;14.20;99.90;;;;;;5015565;28;20041;-78
2023/07/21 06:11:24;;;;;;;4.15;2.58;;;14.30;99.90;;;;;;5022178;28;20044;-78
2023/07/21 06:13:50;;;;;;;6.97;3.10;;;14.40;99.90;;;;;;5078436;28;20037;-78
2023/07/21 06:16:16;;;;;;;3.67;2.35;;;14.50;99.90;;;;;;5052754;28;20063;-78
2023/07/21 06:18:43;;;;;;;4.82;2.70;;;14.50;99.90;;;;;;5026920;28;20029;-77
2023/07/21 06:21:11;;;;;;;3.80;2.25;;;14.60;99.90;;;;;;5045719;28;20040;-77
2023/07/21 06:23:38;;;;;;;2.72;2.35;;;14.70;99.90;;;;;;5015238;28;20475;-77
2023/07/21 06:26:04;;;;;;;3.50;2.40;;;14.70;99.90;;;;;;5044417;28;20563;-77
2023/07/21 06:28:30;;;;;;;4.50;2.40;;;14.80;99.90;;;;;;5034213;28;20037;-77
2023/07/21 06:30:56;;;;;;;4.82;2.90;;;14.90;99.90;;;;;;5028674;28;20499;-77
2023/07/21 06:33:22;;;;;;;4.78;2.30;;;15.00;99.90;;;;;;5040414;28;20048;-77
2023/07/21 06:35:49;;;;;;;6.45;4.00;;;15.10;99.90;;;;;;5034262;28;20067;-80
2023/07/21 06:38:14;;;;;;;5.88;2.63;;;15.10;99.90;;;;;;5034574;28;20524;-77
2023/07/21 06:40:40;;;;;;;3.97;2.30;;;15.20;99.90;;;;;;5030117;28;20050;-77
2023/07/21 06:43:06;;;;;;;3.80;2.70;;;15.20;99.90;;;;;;5041899;28;20514;-78
2023/07/21 06:45:33;;;;;;;7.10;2.33;;;15.30;99.90;;;;;;5033294;28;20122;-78
2023/07/21 06:47:59;;;;;;;4.05;2.28;;;15.40;99.90;;;;;;5078301;28;20091;-78
2023/07/21 06:50:24;;;;;;;4.60;2.00;;;15.40;99.90;;;;;;5029298;28;20044;-86
2023/07/21 06:52:50;;;;;;;4.68;2.30;;;15.50;99.90;;;;;;5012359;28;20079;-77
2023/07/21 06:55:16;;;;;;;2.97;1.80;;;15.60;99.90;;;;;;5049710;28;20037;-78
2023/07/21 06:57:41;;;;;;;3.35;1.80;;;15.70;99.90;;;;;;5033542;28;20068;-77
2023/07/21 07:00:08;;;;;;;3.30;2.42;;;15.70;99.90;;;;;;5011445;28;20041;-79
2023/07/21 07:02:33;;;;;;;4.38;2.40;;;15.80;99.90;;;;;;5048464;28;20048;-80
2023/07/21 07:04:59;;;;;;;3.78;2.08;;;15.90;99.90;;;;;;5063988;28;20546;-77
2023/07/21 07:07:27;;;;;;;4.82;2.08;;;16.00;99.90;;;;;;5034504;28;20069;-76
2023/07/21 07:09:52;;;;;;;7.75;2.45;;;16.10;99.90;;;;;;5048382;28;20048;-77
2023/07/21 07:12:18;;;;;;;4.70;2.42;;;16.30;99.90;;;;;;5032812;28;20036;-76
2023/07/21 07:14:46;;;;;;;3.90;2.50;;;16.40;99.90;;;;;;5012515;28;20042;-78
2023/07/21 07:17:12;;;;;;;4.50;2.50;;;16.50;99.90;;;;;;5030434;28;20060;-76
2023/07/21 07:19:39;;;;;;;5.55;2.55;;;16.60;99.90;;;;;;5050242;28;20045;-77
2023/07/21 07:22:08;;;;;;;4.72;2.42;;;16.70;99.90;;;;;;5050365;28;20051;-77
2023/07/21 07:24:35;;;;;;;2.75;2.08;;;16.90;99.90;;;;;;5082943;28;20052;-77
2023/07/21 07:27:00;;;;;;;3.72;2.40;;;17.10;99.90;;;;;;5031604;28;20048;-76
2023/07/21 07:29:27;;;;;;;2.95;2.55;;;17.30;99.90;;;;;;5066350;28;20053;-77
2023/07/21 07:31:53;;;;;;;3.00;1.88;;;17.40;99.90;;;;;;5075734;28;20068;-76
2023/07/21 07:34:18;;;;;;;3.20;2.35;;;17.60;99.90;;;;;;5043152;28;20127;-76
2023/07/21 07:36:44;;;;;;;3.63;1.70;;;17.80;99.90;;;;;;5025031;28;20512;-76
2023/07/21 07:39:11;;;;;;;2.50;1.80;;;18.00;99.90;;;;;;5025544;28;20110;-77
2023/07/21 07:41:38;;;;;;;4.30;1.90;;;18.10;99.90;;;;;;5033611;28;20044;-79
2023/07/21 07:44:06;;;;;;;4.80;2.00;;;18.30;99.90;;;;;;5008709;28;20044;-78
2023/07/21 07:46:32;;;;;;;2.55;2.00;;;18.50;99.90;;;;;;5012676;28;20040;-78
2023/07/21 07:48:58;;;;;;;4.55;1.95;;;18.70;99.90;;;;;;5034098;28;20047;-79
2023/07/21 07:51:24;;;;;;;5.90;1.75;;;18.80;99.90;;;;;;5027765;28;20189;-79
2023/07/21 07:53:52;;;;;;;4.63;2.17;;;18.90;99.90;;;;;;5024307;28;21826;-77
2023/07/21 07:56:18;;;;;;;3.58;2.17;;;19.00;99.90;;;;;;5008550;28;20109;-77
2023/07/21 07:58:44;;;;;;;4.80;2.05;;;19.00;99.90;;;;;;5011369;28;20268;-76
2023/07/21 08:01:13;;;;;;;2.75;2.00;;;19.00;99.90;;;;;;5024424;28;20170;-76
2023/07/21 08:03:43;;;;;;;1.83;1.55;;;19.20;99.90;;;;;;5010324;28;20068;-76
2023/07/21 08:06:10;;;;;;;2.17;1.75;;;19.20;99.90;;;;;;5063578;28;20028;-76
2023/07/21 08:08:36;;;;;;;5.55;1.58;;;19.30;99.90;;;;;;5043530;28;20066;-77
2023/07/21 08:11:02;;;;;;;3.25;1.80;;;19.30;99.90;;;;;;5026914;28;20037;-77
2023/07/21 08:13:28;;;;;;;2.78;2.13;;;19.50;99.90;;;;;;5043727;28;20038;-77
2023/07/21 08:15:53;;;;;;;4.90;2.03;;;19.50;99.90;;;;;;5046159;28;20520;-77
2023/07/21 08:18:19;;;;;;;7.28;2.00;;;19.50;99.90;;;;;;5011613;28;20250;-78
2023/07/21 08:20:45;;;;;;;3.05;1.80;;;19.60;99.90;;;;;;5029764;28;20048;-78
2023/07/21 08:23:10;;;;;;;2.42;1.80;;;19.60;99.90;;;;;;5026166;28;20925;-78
2023/07/21 08:25:36;;;;;;;3.03;1.75;;;19.60;99.90;;;;;;5008552;28;20124;-78
2023/07/21 08:28:03;;;;;;;1.90;1.77;;;19.50;99.90;;;;;;5043482;28;20051;-78
2023/07/21 08:30:32;;;;;;;2.67;1.77;;;19.40;99.90;;;;;;5028491;28;20501;-78
2023/07/21 08:32:58;;;;;;;1.92;1.50;;;19.50;99.90;;;;;;5026846;28;20068;-78
2023/07/21 08:35:25;;;;;;;2.35;1.38;;;19.50;99.90;;;;;;5029361;28;20433;-78
2023/07/21 08:37:51;;;;;;;3.45;1.30;;;19.50;99.90;;;;;;5027475;28;20075;-79
2023/07/21 08:40:19;;;;;;;1.50;1.40;;;19.60;99.90;;;;;;5022932;28;20123;-79
2023/07/21 08:42:45;;;;;;;3.95;1.80;;;19.70;99.90;;;;;;5021405;28;20051;-78
2023/07/21 08:45:14;;;;;;;5.85;1.40;;;19.80;99.90;;;;;;5024917;28;21452;-76
2023/07/21 08:47:40;;;;;;;1.35;1.25;;;20.00;99.90;;;;;;5044644;28;20044;-77
2023/07/21 08:50:06;;;;;;;1.75;1.35;;;20.10;99.90;;;;;;5018685;28;20567;-76
2023/07/21 08:52:32;;;;;;;3.38;1.45;;;20.20;99.90;;;;;;5030578;28;20040;-77
2023/07/21 08:54:59;;;;;;;1.88;1.30;;;20.30;99.90;;;;;;5013891;28;20502;-77
2023/07/21 08:57:25;;;;;;;1.77;1.40;;;20.20;99.90;;;;;;5052245;28;20048;-78
2023/07/21 08:59:54;;;;;;;1.80;1.30;;;19.90;97.60;;;;;;5013397;28;20153;-77
2023/07/21 09:02:37;;;;;;;1.73;1.00;;;19.70;98.00;;;;;;5030502;28;20041;-77
2023/07/21 09:05:03;;;;;;;1.80;1.40;;;19.90;98.10;;;;;;5029251;28;20132;-78
2023/07/21 09:07:30;;;;;;;1.52;1.40;;;20.10;98.10;;;;;;5032718;28;20052;-77
2023/07/21 09:09:56;;;;;;;1.90;1.27;;;20.30;98.80;;;;;;5019783;28;21744;-77
2023/07/21 09:12:22;;;;;;;1.67;1.20;;;20.40;97.30;;;;;;5037723;28;20182;-77
2023/07/21 09:14:47;;;;;;;1.40;1.30;;;20.50;97.20;;;;;;5056835;28;20071;-77
2023/07/21 09:17:15;;;;;;;3.38;1.33;;;20.60;96.30;;;;;;5019562;28;20055;-78
2023/07/21 09:19:43;;;;;;;1.13;1.02;;;20.80;96.80;;;;;;5015192;28;20316;-77
2023/07/21 09:22:09;;;;;;;2.38;1.17;;;20.80;95.60;;;;;;5017264;28;20402;-75
2023/07/21 09:24:37;;;;;;;1.58;1.38;;;20.90;96.00;;;;;;4977031;28;20316;-77
2023/07/21 09:27:21;;;;;;;2.20;1.33;;;21.10;94.80;;;;;;4981004;28;20038;-81
2023/07/21 09:29:46;;;;;;;2.70;1.33;;;21.20;91.40;;;;;;4968765;28;20492;-80
2023/07/21 09:32:21;;;;;;;2.47;1.25;;;21.30;91.90;;;;;;4962871;28;20069;-80
2023/07/21 09:34:57;;;;;;;1.38;1.00;;;21.30;90.80;;;;;;4980420;28;20048;-81
2023/07/21 09:37:28;;;;;;;1.52;1.17;;;21.40;91.90;;;;;;4964661;28;20434;-80
2023/07/21 09:40:10;;;;;;;1.30;1.00;;;21.60;90.80;;;;;;4975719;28;20044;-80
2023/07/21 09:42:37;;;;;;;1.55;1.27;;;21.70;90.80;;;;;;4990459;28;20050;-80
2023/07/21 09:45:04;;;;;;;1.63;1.40;;;22.00;92.10;;;;;;4973455;28;20794;-80
2023/07/21 09:47:30;;;;;;;2.13;1.25;;;22.20;90.50;;;;;;4979360;28;20046;-80
2023/07/21 09:49:58;;;;;;;0.90;0.90;;;22.30;90.30;;;;;;4976298;28;20097;-81
2023/07/21 09:52:26;;;;;;;2.00;1.30;;;22.30;88.80;;;;;;4972914;28;20048;-81
2023/07/21 09:55:10;;;;;;;0.80;0.80;;;22.30;86.80;;;;;;4989477;28;20068;-81
2023/07/21 09:57:46;;;;;;;1.77;1.23;;;22.20;81.70;;;;;;4980125;28;20039;-80
2023/07/21 10:00:14;;;;;;;2.00;1.10;;;22.30;86.70;;;;;;4992296;28;20415;-80
2023/07/21 10:02:50;;;;;;;1.33;1.20;;;22.50;88.20;;;;;;4966108;28;20548;-79
2023/07/21 10:05:16;;;;;;;1.27;1.17;;;22.50;84.90;;;;;;4957097;28;20518;-79
2023/07/21 10:07:45;;;;;;;3.38;1.30;;;22.50;85.70;;;;;;4975910;28;20069;-79
2023/07/21 10:10:12;;;;;;;1.73;1.10;;;22.40;84.80;;;;;;4992359;28;20746;-79
2023/07/21 10:12:41;;;;;;;2.97;1.05;;;22.50;85.50;;;;;;4992823;28;20484;-79
2023/07/21 10:15:21;;;;;;;2.55;1.20;;;22.70;85.60;;;;;;4993036;28;20050;-79
2023/07/21 10:17:59;;;;;;;1.20;1.05;;;22.90;85.60;;;;;;4975444;28;20053;-79
2023/07/21 10:20:55;;;;;;;2.28;1.35;;;22.80;82.30;;;;;;4992738;28;20140;-79
2023/07/21 10:23:25;;;;;;;1.83;1.50;;;22.30;82.70;;;;;;4981197;28;20094;-79
2023/07/21 10:25:51;;;;;;;2.83;1.30;;;22.30;85.30;;;;;;4972774;28;20042;-79
2023/07/21 10:28:31;;;;;;;2.00;1.30;;;22.40;86.40;;;;;;4965618;28;20093;-79
2023/07/21 10:31:24;;;;;;;2.95;1.38;;;22.70;87.40;;;;;;4991566;28;20065;-79
2023/07/21 10:34:06;;;;;;;1.88;1.30;;;22.70;85.00;;;;;;4975445;28;20129;-80
2023/07/21 10:36:50;;;;;;;1.50;1.30;;;22.80;84.80;;;;;;4989940;28;20054;-79
2023/07/21 10:39:21;;;;;;;1.33;1.02;;;23.00;85.10;;;;;;4964745;28;20161;-78
2023/07/21 10:41:49;;;;;;;1.77;1.50;;;23.10;85.10;;;;;;4969164;28;20033;-79
2023/07/21 10:44:15;;;;;;;2.60;1.58;;;23.00;83.20;;;;;;4982680;28;20682;-78
2023/07/21 10:46:45;;;;;;;2.13;1.48;;;22.90;83.90;;;;;;4970537;28;20042;-79
2023/07/21 10:49:13;;;;;;;1.23;1.13;;;22.90;83.70;;;;;;4990259;28;20049;-78
2023/07/21 10:51:40;;;;;;;1.65;1.40;;;23.00;84.70;;;;;;4981393;28;20030;-79
2023/07/21 10:54:07;;;;;;;1.48;1.30;;;22.90;83.50;;;;;;4968119;28;20038;-79
2023/07/21 10:56:35;;;;;;;2.10;1.80;;;22.70;84.60;;;;;;4968921;28;20035;-78
2023/07/21 10:59:02;;;;;;;1.70;1.60;;;22.60;85.50;;;;;;4965964;28;20392;-79
2023/07/21 11:01:27;;;;;;;2.58;1.70;;;22.60;85.70;;;;;;4976400;28;20102;-79
2023/07/21 11:03:53;;;;;;;2.00;1.80;;;22.70;87.10;;;;;;4966010;28;20491;-79
2023/07/21 11:06:19;;;;;;;2.60;1.80;;;22.80;86.50;;;;;;4962102;28;20042;-78
2023/07/21 11:08:44;;;;;;;2.88;1.70;;;23.10;87.30;;;;;;4975777;28;20037;-79
2023/07/21 11:11:10;;;;;;;3.95;1.70;;;23.30;87.10;;;;;;4964297;28;20129;-79
2023/07/21 11:13:41;;;;;;;1.98;1.52;;;23.60;85.70;;;;;;4977119;28;20523;-78
2023/07/21 11:16:08;;;;;;;2.13;1.75;;;23.30;83.80;;;;;;4982512;28;20046;-79
2023/07/21 11:18:34;;;;;;;1.70;1.60;;;23.00;83.40;;;;;;4994389;28;20095;-79
2023/07/21 11:21:00;;;;;;;2.53;1.45;;;22.80;82.90;;;;;;4982651;28;20065;-78
2023/07/21 11:23:31;;;;;;;3.00;1.75;;;22.90;85.40;;;;;;4979988;28;20118;-78
2023/07/21 11:26:07;;;;;;;2.03;1.50;;;22.90;84.60;;;;;;4982840;28;20925;-78
2023/07/21 11:28:33;;;;;;;2.28;1.50;;;22.90;84.20;;;;;;4980086;28;20051;-78
2023/07/21 11:31:02;;;;;;;2.58;1.70;;;22.70;85.10;;;;;;5006420;28;20038;-79
2023/07/21 11:33:49;;;;;;;1.77;1.63;;;22.50;85.60;;;;;;4967611;28;20092;-78
2023/07/21 11:36:23;;;;;;;3.50;1.70;;;22.40;85.80;;;;;;4969372;28;20057;-78
2023/07/21 11:39:11;;;;;;;4.22;1.80;;;22.30;86.70;;;;;;4981829;28;20038;-79
2023/07/21 11:41:39;;;;;;;1.92;1.70;;;22.20;85.60;;;;;;5001114;28;20038;-79
2023/07/21 11:44:17;;;;;;;1.40;1.30;;;22.10;85.90;;;;;;4984256;28;20045;-79
2023/07/21 11:47:03;;;;;;;2.10;1.85;;;22.10;87.00;;;;;;4982843;28;20062;-78
2023/07/21 11:49:31;;;;;;;5.07;1.65;;;22.20;85.50;;;;;;4974408;28;20049;-78
2023/07/21 11:52:03;;;;;;;2.80;2.03;;;22.30;85.50;;;;;;4966472;28;20454;-78
2023/07/21 11:54:37;;;;;;;2.35;1.63;;;22.30;83.60;;;;;;4967971;28;20041;-78
2023/07/21 11:57:04;;;;;;;2.72;1.90;;;22.40;83.40;;;;;;4974146;28;20364;-79
2023/07/21 11:59:30;;;;;;;2.95;1.63;;;22.50;84.70;;;;;;4988634;28;20088;-80
2023/07/21 12:01:56;;;;;;;2.30;1.90;;;22.70;85.20;;;;;;4974931;28;20035;-81
2023/07/21 12:04:23;;;;;;;1.80;1.70;;;22.90;82.60;;;;;;4976933;28;20053;-81
2023/07/21 12:06:51;;;;;;;2.53;1.45;;;22.80;83.40;;;;;;4973430;28;20056;-81
2023/07/21 12:09:17;;;;;;;3.50;1.40;;;22.70;81.40;;;;;;4960698;28;20062;-81
2023/07/21 12:11:43;;;;;;;3.97;1.60;;;22.70;82.70;;;;;;4952839;28;20251;-81
2023/07/21 12:14:09;;;;;;;2.15;1.50;;;22.70;83.00;;;;;;4968681;28;20051;-81
2023/07/21 12:16:35;;;;;;;2.25;1.50;;;22.70;83.40;;;;;;4983125;28;20049;-81
2023/07/21 12:19:05;;;;;;;2.13;1.60;;;22.50;83.00;;;;;;4961415;28;20049;-81
2023/07/21 12:21:31;;;;;;;2.72;1.92;;;22.70;84.10;;;;;;4982251;28;20042;-81
2023/07/21 12:23:57;;;;;;;1.63;1.52;;;22.70;84.10;;;;;;4989570;28;20077;-81
2023/07/21 12:26:24;;;;;;;3.55;2.25;;;22.70;83.40;;;;;;4989516;28;20042;-81
2023/07/21 12:28:53;;;;;;;2.83;1.80;;;22.80;84.00;;;;;;4973503;28;20121;-81
2023/07/21 12:31:20;;;;;;;2.67;2.10;;;22.90;83.90;;;;;;4990179;28;20125;-81
2023/07/21 12:33:48;;;;;;;2.70;1.70;;;22.90;83.20;;;;;;4990654;28;20042;-82
2023/07/21 12:36:17;;;;;;;3.40;1.70;;;22.90;83.50;;;;;;4990153;28;20038;-80
2023/07/21 12:38:44;;;;;;;2.40;1.90;;;23.00;82.50;;;;;;4989327;28;20046;-81
2023/07/21 12:41:11;;;;;;;2.10;1.90;;;22.90;82.00;;;;;;4988318;28;20566;-81
2023/07/21 12:43:37;;;;;;;1.85;1.55;;;23.10;80.70;;;;;;4970537;28;20045;-81
2023/07/21 12:46:04;;;;;;;2.88;1.80;;;23.10;81.80;;;;;;4970321;28;20613;-81
2023/07/21 12:48:30;;;;;;;3.30;1.95;;;23.40;82.30;;;;;;4971203;28;20074;-81